createdAt,value
2019-01-15T00:02:29.998Z,2.20
2019-01-15T00:05:01.400Z,2.13
2019-01-15T00:07:32.636Z,2.14
2019-01-15T00:10:04.895Z,2.20
2019-01-15T00:12:36.187Z,2.20
2019-01-15T00:15:08.345Z,2.18
2019-01-15T00:17:39.602Z,2.14
2019-01-15T00:20:10.923Z,2.10
2019-01-15T00:22:42.375Z,2.17
2019-01-15T00:25:13.634Z,2.19
2019-01-15T00:27:45.000Z,2.14
2019-01-15T00:30:17.630Z,2.20
2019-01-15T00:32:49.966Z,2.19
2019-01-15T00:35:22.436Z,2.19
2019-01-15T00:37:53.635Z,2.19
2019-01-15T00:40:25.007Z,2.19
2019-01-15T00:42:56.213Z,2.15
2019-01-15T00:45:27.489Z,2.13
2019-01-15T00:47:58.636Z,2.10
2019-01-15T00:50:29.786Z,2.03
2019-01-15T00:53:01.439Z,1.97
2019-01-15T00:55:32.565Z,2.01
2019-01-15T00:58:04.020Z,1.97
2019-01-15T01:00:35.393Z,1.89
2019-01-15T01:03:06.828Z,1.90
2019-01-15T01:05:38.015Z,1.91
2019-01-15T01:08:09.250Z,1.97
2019-01-15T01:10:40.493Z,1.94
2019-01-15T01:13:11.698Z,1.85
2019-01-15T01:15:43.985Z,1.86
2019-01-15T01:18:15.278Z,1.88
2019-01-15T01:20:46.455Z,1.88
2019-01-15T01:23:17.740Z,1.84
2019-01-15T01:25:48.939Z,1.87
2019-01-15T01:28:20.148Z,1.82
2019-01-15T01:30:51.327Z,1.74
2019-01-15T01:33:22.514Z,1.71
2019-01-15T01:35:53.856Z,1.77
2019-01-15T01:38:25.212Z,1.69
2019-01-15T01:40:57.551Z,1.69
2019-01-15T01:43:28.760Z,1.68
2019-01-15T01:45:59.881Z,1.67
2019-01-15T01:48:31.173Z,1.70
2019-01-15T01:51:02.444Z,1.71
2019-01-15T01:53:33.605Z,1.75
2019-01-15T01:56:04.907Z,1.74
2019-01-15T01:58:36.157Z,1.72
2019-01-15T02:01:07.542Z,1.70
2019-01-15T02:03:38.893Z,1.64
2019-01-15T02:06:10.165Z,1.51
2019-01-15T02:08:41.501Z,1.58
2019-01-15T02:11:12.592Z,1.59
2019-01-15T02:13:44.801Z,1.60
2019-01-15T02:16:16.178Z,1.56
2019-01-15T02:18:47.466Z,1.58
2019-01-15T02:21:18.850Z,1.52
2019-01-15T02:23:50.226Z,1.51
2019-01-15T02:26:21.630Z,1.42
2019-01-15T02:28:52.813Z,1.47
2019-01-15T02:31:24.084Z,1.45
2019-01-15T02:33:55.273Z,1.41
2019-01-15T02:36:26.571Z,1.44
2019-01-15T02:38:57.698Z,1.46
2019-01-15T02:41:29.081Z,1.45
2019-01-15T02:44:00.284Z,1.34
2019-01-15T02:46:31.396Z,1.34
2019-01-15T02:49:02.635Z,1.23
2019-01-15T02:51:33.807Z,1.27
2019-01-15T02:54:05.221Z,1.17
2019-01-15T02:56:36.365Z,1.12
2019-01-15T02:59:07.697Z,1.14
2019-01-15T03:01:39.062Z,1.06
2019-01-15T03:04:10.303Z,1.07
2019-01-15T03:06:42.646Z,1.05
2019-01-15T03:09:13.927Z,1.08
2019-01-15T03:11:45.247Z,1.08
2019-01-15T03:14:16.341Z,1.05
2019-01-15T03:16:47.495Z,1.01
2019-01-15T03:19:18.697Z,1.03
2019-01-15T03:21:49.900Z,0.92
2019-01-15T03:24:21.221Z,0.92
2019-01-15T03:26:52.486Z,0.91
2019-01-15T03:29:23.814Z,0.90
2019-01-15T03:31:55.023Z,0.88
2019-01-15T03:34:26.347Z,0.79
2019-01-15T03:36:57.557Z,0.85
2019-01-15T03:39:28.770Z,0.84
2019-01-15T03:42:00.083Z,0.87
2019-01-15T03:44:31.204Z,0.89
2019-01-15T03:47:02.436Z,0.78
2019-01-15T03:49:33.700Z,0.75
2019-01-15T03:52:05.173Z,0.80
2019-01-15T03:54:36.429Z,0.79
2019-01-15T03:57:07.527Z,0.80
2019-01-15T03:59:38.829Z,0.84
2019-01-15T04:02:10.884Z,0.80
2019-01-15T04:04:42.673Z,0.76
2019-01-15T04:07:14.098Z,0.77
2019-01-15T04:09:45.403Z,0.72
2019-01-15T04:12:16.677Z,0.78
2019-01-15T04:14:47.847Z,0.77
2019-01-15T04:17:19.115Z,0.81
2019-01-15T04:19:50.293Z,0.82
2019-01-15T04:22:21.432Z,0.75
2019-01-15T04:24:52.640Z,0.77
2019-01-15T04:27:23.947Z,0.79
2019-01-15T04:29:55.029Z,0.67
2019-01-15T04:32:26.172Z,0.71
2019-01-15T04:34:58.270Z,0.62
2019-01-15T04:37:29.526Z,0.63
2019-01-15T04:40:00.691Z,0.59
2019-01-15T04:42:31.938Z,0.57
2019-01-15T04:45:03.253Z,0.56
2019-01-15T04:47:34.418Z,0.53
2019-01-15T04:50:07.242Z,0.53
2019-01-15T04:52:39.779Z,0.53
2019-01-15T04:55:11.633Z,0.52
2019-01-15T04:57:43.070Z,0.48
2019-01-15T05:00:16.538Z,0.55
2019-01-15T05:02:47.987Z,0.48
2019-01-15T05:05:20.510Z,0.47
2019-01-15T05:07:51.775Z,0.42
2019-01-15T05:10:23.247Z,0.40
2019-01-15T05:12:54.452Z,0.41
2019-01-15T05:15:25.970Z,0.50
2019-01-15T05:17:56.933Z,0.49
2019-01-15T05:20:28.049Z,0.44
2019-01-15T05:22:59.200Z,0.40
2019-01-15T05:25:30.493Z,0.40
2019-01-15T05:28:01.739Z,0.37
2019-01-15T05:30:33.134Z,0.37
2019-01-15T05:33:04.462Z,0.35
2019-01-15T05:35:36.647Z,0.42
2019-01-15T05:38:07.962Z,0.48
2019-01-15T05:40:39.255Z,0.54
2019-01-15T05:43:10.326Z,0.56
2019-01-15T05:45:44.095Z,0.56
2019-01-15T05:48:28.622Z,0.58
2019-01-15T05:51:21.904Z,0.59
2019-01-15T05:53:52.893Z,0.62
2019-01-15T05:56:24.192Z,0.59
2019-01-15T05:58:55.411Z,0.61
2019-01-15T06:01:26.410Z,0.60
2019-01-15T06:03:57.629Z,0.61
2019-01-15T06:06:28.806Z,0.62
2019-01-15T06:09:00.079Z,0.49
2019-01-15T06:11:31.398Z,0.50
2019-01-15T06:14:02.402Z,0.34
2019-01-15T06:16:33.605Z,0.52
2019-01-15T06:19:04.820Z,0.59
2019-01-15T06:21:36.214Z,0.56
2019-01-15T06:24:07.462Z,0.55
2019-01-15T06:26:38.561Z,0.40
2019-01-15T06:29:10.147Z,0.38
2019-01-15T06:31:41.431Z,0.41
2019-01-15T06:34:13.128Z,0.53
2019-01-15T06:36:44.370Z,0.43
2019-01-15T06:39:15.540Z,0.47
2019-01-15T06:41:47.730Z,0.44
2019-01-15T06:44:19.076Z,0.55
2019-01-15T06:46:52.439Z,0.68
2019-01-15T06:49:23.454Z,0.83
2019-01-15T06:51:54.743Z,0.85
2019-01-15T06:54:25.935Z,0.80
2019-01-15T06:56:57.153Z,0.77
2019-01-15T06:59:28.402Z,0.85
2019-01-15T07:01:59.583Z,0.84
2019-01-15T07:04:30.675Z,0.75
2019-01-15T07:07:01.972Z,0.83
2019-01-15T07:09:33.296Z,0.87
2019-01-15T07:12:04.749Z,1.00
2019-01-15T07:14:35.756Z,1.15
2019-01-15T07:17:07.016Z,1.43
2019-01-15T07:19:38.289Z,1.50
2019-01-15T07:22:09.584Z,1.61
2019-01-15T07:24:40.883Z,1.73
2019-01-15T07:27:12.129Z,2.02
2019-01-15T07:29:43.546Z,2.14
2019-01-15T07:32:14.791Z,1.97
2019-01-15T07:34:45.821Z,1.97
2019-01-15T07:37:17.125Z,2.04
2019-01-15T07:39:48.281Z,3.51
2019-01-15T07:42:19.586Z,4.90
2019-01-15T07:44:50.611Z,4.90
2019-01-15T07:47:21.962Z,5.99
2019-01-15T07:49:53.237Z,8.21
2019-01-15T07:52:24.427Z,8.21
2019-01-15T07:54:55.507Z,8.57
2019-01-15T07:57:26.839Z,10.65
2019-01-15T07:59:57.973Z,11.48
2019-01-15T08:02:29.142Z,12.32
2019-01-15T08:05:00.305Z,13.06
2019-01-15T08:07:31.494Z,14.13
2019-01-15T08:10:02.819Z,14.05
2019-01-15T08:12:34.075Z,13.89
2019-01-15T08:15:06.440Z,14.97
2019-01-15T08:17:37.940Z,16.00
2019-01-15T08:20:09.984Z,15.81
2019-01-15T08:22:43.242Z,15.43
2019-01-15T08:25:14.788Z,15.65
2019-01-15T08:27:46.058Z,16.80
2019-01-15T08:30:28.742Z,17.01
2019-01-15T08:32:59.886Z,16.16
2019-01-15T08:35:31.607Z,15.98
2019-01-15T08:38:02.891Z,15.50
2019-01-15T08:40:33.997Z,15.11
2019-01-15T08:43:05.601Z,14.64
2019-01-15T08:45:36.768Z,14.35
2019-01-15T08:48:22.097Z,14.61
2019-01-15T08:50:54.062Z,14.81
2019-01-15T08:53:25.873Z,15.35
2019-01-15T08:55:58.375Z,15.57
2019-01-15T08:58:29.564Z,15.24
2019-01-15T09:01:00.803Z,15.89
2019-01-15T09:03:31.996Z,16.24
2019-01-15T09:06:03.339Z,16.79
2019-01-15T09:08:34.823Z,17.07
2019-01-15T09:11:06.420Z,17.93
2019-01-15T09:13:37.846Z,17.50
2019-01-15T09:16:09.100Z,17.05
2019-01-15T09:18:40.463Z,17.14
2019-01-15T09:21:11.729Z,16.58
2019-01-15T09:23:42.975Z,16.33
2019-01-15T09:26:15.420Z,16.42
2019-01-15T09:28:46.780Z,16.18
2019-01-15T09:31:18.053Z,16.42
2019-01-15T09:33:49.408Z,15.45
2019-01-15T09:36:20.528Z,14.97
2019-01-15T09:38:51.804Z,13.04
2019-01-15T09:41:22.956Z,12.50
2019-01-15T09:43:54.055Z,11.34
2019-01-15T09:46:25.486Z,9.71
2019-01-15T09:48:56.551Z,8.87
2019-01-15T09:51:27.753Z,8.52
2019-01-15T09:53:59.120Z,8.19
2019-01-15T09:56:30.284Z,7.74
2019-01-15T09:59:01.636Z,7.72
2019-01-15T10:01:32.736Z,7.57
2019-01-15T10:04:04.005Z,7.37
2019-01-15T10:06:36.308Z,7.37
2019-01-15T10:09:09.893Z,7.68
2019-01-15T10:11:41.023Z,8.79
2019-01-15T10:14:12.211Z,10.28
2019-01-15T10:16:43.339Z,11.11
2019-01-15T10:19:14.585Z,12.69
2019-01-15T10:21:46.842Z,13.38
2019-01-15T10:24:18.029Z,13.87
2019-01-15T10:26:49.222Z,13.67
2019-01-15T10:29:22.229Z,14.40
2019-01-15T10:32:37.488Z,14.37
2019-01-15T10:35:22.408Z,13.48
2019-01-15T10:37:53.608Z,13.20
2019-01-15T10:40:26.053Z,13.90
2019-01-15T10:42:57.225Z,14.17
2019-01-15T10:45:28.579Z,14.42
2019-01-15T10:47:59.832Z,15.30
2019-01-15T10:50:30.970Z,15.77
2019-01-15T10:53:02.106Z,16.38
2019-01-15T10:55:33.465Z,16.59
2019-01-15T10:58:04.838Z,16.88
2019-01-15T11:00:36.250Z,17.37
2019-01-15T11:03:07.407Z,17.90
2019-01-15T11:05:38.710Z,18.82
2019-01-15T11:08:10.032Z,18.11
2019-01-15T11:10:41.348Z,18.47
2019-01-15T11:13:12.664Z,17.69
2019-01-15T11:15:43.775Z,16.36
2019-01-15T11:18:16.105Z,15.72
2019-01-15T11:20:47.354Z,15.71
2019-01-15T11:23:18.590Z,16.12
2019-01-15T11:25:51.360Z,16.94
2019-01-15T11:28:22.684Z,15.99
2019-01-15T11:30:54.023Z,16.36
2019-01-15T11:33:25.424Z,16.59
2019-01-15T11:35:56.782Z,17.46
2019-01-15T11:38:28.118Z,16.62
2019-01-15T11:40:59.447Z,16.49
2019-01-15T11:43:30.634Z,16.92
2019-01-15T11:46:01.966Z,16.78
2019-01-15T11:48:33.166Z,16.83
2019-01-15T11:51:04.446Z,16.42
2019-01-15T11:53:35.617Z,16.93
2019-01-15T11:56:07.017Z,16.60
2019-01-15T11:58:39.239Z,16.86
2019-01-15T12:01:19.337Z,16.19
2019-01-15T12:04:08.306Z,14.70
2019-01-15T12:07:07.712Z,12.98
2019-01-15T12:09:56.743Z,10.62
2019-01-15T12:13:05.329Z,8.96
2019-01-15T12:15:55.319Z,8.13
2019-01-15T12:18:37.805Z,7.45
2019-01-15T12:21:42.964Z,7.06
2019-01-15T12:24:31.595Z,6.47
2019-01-15T12:27:12.166Z,5.75
2019-01-15T12:30:05.326Z,5.87
2019-01-15T12:32:56.396Z,5.54
2019-01-15T12:35:41.956Z,4.67
2019-01-15T12:38:30.598Z,4.67
2019-01-15T12:41:19.503Z,4.40
2019-01-15T12:44:21.578Z,4.40
2019-01-15T12:47:06.319Z,4.21
2019-01-15T12:49:55.143Z,4.20
2019-01-15T12:52:44.026Z,4.20
2019-01-15T12:55:47.449Z,3.94
2019-01-15T12:58:36.082Z,3.88
2019-01-15T13:01:36.026Z,3.88
2019-01-15T13:04:26.280Z,3.49
2019-01-15T13:07:16.551Z,3.49
2019-01-15T13:10:22.933Z,3.38
2019-01-15T13:13:13.043Z,3.19
2019-01-15T13:16:03.005Z,3.11
2019-01-15T13:18:53.079Z,3.11
2019-01-15T13:21:47.756Z,2.88
2019-01-15T13:24:35.217Z,2.89
2019-01-15T13:27:18.667Z,2.76
2019-01-15T13:30:08.831Z,2.76
2019-01-15T13:33:13.006Z,2.60
2019-01-15T13:36:04.590Z,2.61
2019-01-15T13:38:57.883Z,2.61
2019-01-15T13:41:45.435Z,2.55
2019-01-15T13:44:34.335Z,2.44
2019-01-15T13:47:36.452Z,2.45
2019-01-15T13:50:36.827Z,2.45
2019-01-15T13:53:36.051Z,2.40
2019-01-15T13:56:26.241Z,2.29
2019-01-15T13:59:11.610Z,2.22
2019-01-15T14:02:10.645Z,2.31
2019-01-15T14:05:03.760Z,2.35
2019-01-15T14:08:03.117Z,2.21
2019-01-15T14:10:59.410Z,2.14
2019-01-15T14:13:48.115Z,1.96
2019-01-15T14:16:50.511Z,1.82
2019-01-15T14:19:40.696Z,1.91
2019-01-15T14:22:29.911Z,1.91
2019-01-15T14:25:26.243Z,1.69
2019-01-15T14:28:22.267Z,1.51
2019-01-15T14:31:11.171Z,1.38
2019-01-15T14:34:07.898Z,1.24
2019-01-15T14:36:53.768Z,1.23
2019-01-15T14:39:44.407Z,1.02
2019-01-15T14:42:23.227Z,1.00
2019-01-15T14:45:16.024Z,0.84
2019-01-15T14:48:16.832Z,0.84
2019-01-15T14:51:22.136Z,0.80
2019-01-15T14:54:21.209Z,0.75
2019-01-15T14:57:14.634Z,0.75
2019-01-15T15:00:07.445Z,0.63
2019-01-15T15:02:57.985Z,0.64
2019-01-15T15:05:50.912Z,0.55
2019-01-15T15:08:40.001Z,0.53
2019-01-15T15:11:33.241Z,0.57
2019-01-15T15:14:23.599Z,0.45
2019-01-15T15:17:18.783Z,0.38
2019-01-15T15:20:09.122Z,0.31
2019-01-15T15:23:05.128Z,0.25
2019-01-15T15:26:04.386Z,0.17
2019-01-15T15:28:53.521Z,0.25
2019-01-15T15:32:01.931Z,0.20
2019-01-15T15:34:44.218Z,0.09
2019-01-15T15:37:28.277Z,0.14
2019-01-15T15:40:16.815Z,0.11
2019-01-15T15:43:05.480Z,0.13
2019-01-15T15:45:58.408Z,0.16
2019-01-15T15:48:57.551Z,0.11
2019-01-15T15:51:47.472Z,-0.04
2019-01-15T15:54:47.621Z,-0.08
2019-01-15T15:57:40.876Z,-0.10
2019-01-15T16:00:32.127Z,-0.11
2019-01-15T16:03:25.120Z,-0.12
2019-01-15T16:06:07.004Z,-0.09
2019-01-15T16:08:49.545Z,-0.13
2019-01-15T16:11:30.823Z,-0.24
2019-01-15T16:14:18.064Z,-0.32
2019-01-15T16:16:58.531Z,-0.34
2019-01-15T16:19:48.546Z,-0.27
2019-01-15T16:22:30.633Z,-0.31
2019-01-15T16:25:36.212Z,-0.38
2019-01-15T16:28:30.316Z,-0.32
2019-01-15T16:31:29.726Z,-0.39
2019-01-15T16:34:23.522Z,-0.33
2019-01-15T16:37:16.559Z,-0.42
2019-01-15T16:40:06.726Z,-0.58
2019-01-15T16:42:48.638Z,-0.60
2019-01-15T16:45:39.954Z,-0.62
2019-01-15T16:48:32.948Z,-0.53
2019-01-15T16:51:21.906Z,-0.58
2019-01-15T16:54:24.446Z,-0.61
2019-01-15T16:57:14.212Z,-0.82
2019-01-15T17:00:22.667Z,-0.83
2019-01-15T17:03:18.801Z,-0.74
2019-01-15T17:06:14.818Z,-0.82
2019-01-15T17:09:12.532Z,-0.84
2019-01-15T17:11:56.443Z,-0.78
2019-01-15T17:14:45.078Z,-0.80
2019-01-15T17:17:34.650Z,-0.87
2019-01-15T17:20:26.302Z,-0.91
2019-01-15T17:23:13.828Z,-0.93
2019-01-15T17:26:06.977Z,-0.94
2019-01-15T17:29:00.267Z,-1.01
2019-01-15T17:31:53.708Z,-0.96
2019-01-15T17:34:46.660Z,-0.81
2019-01-15T17:37:45.625Z,-0.76
2019-01-15T17:40:30.144Z,-0.68
2019-01-15T17:43:18.870Z,-0.78
2019-01-15T17:46:08.065Z,-0.86
2019-01-15T17:49:10.715Z,-0.98
2019-01-15T17:52:06.876Z,-0.97
2019-01-15T17:54:55.534Z,-0.83
2019-01-15T17:57:58.149Z,-0.94
2019-01-15T18:00:48.256Z,-0.91
2019-01-15T18:03:29.820Z,-0.91
2019-01-15T18:06:22.697Z,-0.92
2019-01-15T18:09:13.697Z,-0.97
2019-01-15T18:12:21.759Z,-0.99
2019-01-15T18:15:11.902Z,-0.99
2019-01-15T18:18:08.021Z,-1.05
2019-01-15T18:20:57.837Z,-1.01
2019-01-15T18:23:46.905Z,-1.06
2019-01-15T18:26:41.455Z,-0.95
2019-01-15T18:29:43.583Z,-0.78
2019-01-15T18:32:33.743Z,-0.74
2019-01-15T18:35:27.465Z,-0.85
2019-01-15T18:38:16.190Z,-0.73
2019-01-15T18:41:09.360Z,-0.63
2019-01-15T18:44:05.341Z,-0.65
2019-01-15T18:46:55.943Z,-0.64
2019-01-15T18:50:01.786Z,-0.59
2019-01-15T18:52:51.942Z,-0.66
2019-01-15T18:55:42.144Z,-0.65
2019-01-15T18:58:25.654Z,-0.46
2019-01-15T19:01:14.466Z,-0.39
2019-01-15T19:04:03.180Z,-0.37
2019-01-15T19:07:08.330Z,-0.43
2019-01-15T19:09:57.061Z,-0.51
2019-01-15T19:12:56.165Z,-0.55
2019-01-15T19:15:49.163Z,-0.52
2019-01-15T19:18:39.269Z,-0.49
2019-01-15T19:21:21.143Z,-0.51
2019-01-15T19:24:29.503Z,-0.37
2019-01-15T19:27:19.667Z,-0.37
2019-01-15T19:30:13.889Z,-0.50
2019-01-15T19:33:09.915Z,-0.71
2019-01-15T19:36:03.998Z,-0.73
2019-01-15T19:38:56.074Z,-0.63
2019-01-15T19:41:45.108Z,-0.63
2019-01-15T19:44:47.398Z,-0.77
2019-01-15T19:47:36.632Z,-0.63
2019-01-15T19:50:26.805Z,-0.50
2019-01-15T19:53:12.311Z,-0.63
2019-01-15T19:56:11.546Z,-0.66
2019-01-15T19:59:01.809Z,-0.78
2019-01-15T20:01:55.048Z,-0.93
2019-01-15T20:04:45.163Z,-0.99
2019-01-15T20:07:53.584Z,-0.99
2019-01-15T20:10:37.781Z,-0.85
2019-01-15T20:13:26.263Z,-0.79
2019-01-15T20:16:22.436Z,-0.78
2019-01-15T20:19:11.039Z,-0.83
2019-01-15T20:21:59.945Z,-0.86
2019-01-15T20:24:52.934Z,-0.93
2019-01-15T20:27:43.372Z,-0.89
2019-01-15T20:30:42.252Z,-0.82
2019-01-15T20:33:32.396Z,-0.96
2019-01-15T20:36:22.589Z,-1.05
2019-01-15T20:39:30.976Z,-0.96
2019-01-15T20:42:19.931Z,-1.00
2019-01-15T20:45:12.612Z,-1.01
2019-01-15T20:48:01.538Z,-0.98
2019-01-15T20:51:03.632Z,-0.89
2019-01-15T20:53:51.198Z,-0.91
2019-01-15T20:56:39.774Z,-0.94
2019-01-15T20:59:32.655Z,-0.96
2019-01-15T21:02:25.496Z,-1.05
2019-01-15T21:05:24.743Z,-1.04
2019-01-15T21:08:23.709Z,-1.00
2019-01-15T21:11:12.481Z,-0.94
2019-01-15T21:14:11.358Z,-0.92
2019-01-15T21:17:00.239Z,-0.87
2019-01-15T21:19:49.152Z,-0.81
2019-01-15T21:22:39.342Z,-0.72
2019-01-15T21:25:19.594Z,-0.74
2019-01-15T21:28:10.835Z,-0.69
2019-01-15T21:30:55.362Z,-0.81
2019-01-15T21:33:51.440Z,-0.73
2019-01-15T21:36:41.522Z,-0.77
2019-01-15T21:39:49.843Z,-0.72
2019-01-15T21:42:38.403Z,-0.70
2019-01-15T21:45:31.467Z,-0.61
2019-01-15T21:48:36.736Z,-0.51
2019-01-15T21:51:27.062Z,-0.59
2019-01-15T21:54:13.578Z,-0.48
2019-01-15T21:57:08.366Z,-0.45
2019-01-15T22:00:05.559Z,-0.45
2019-01-15T22:03:10.004Z,-0.36
2019-01-15T22:06:12.580Z,-0.23
2019-01-15T22:09:02.707Z,-0.22
2019-01-15T22:12:06.022Z,-0.18
2019-01-15T22:14:56.145Z,-0.06
2019-01-15T22:17:47.576Z,0.01
2019-01-15T22:20:43.938Z,-0.04
2019-01-15T22:23:28.533Z,0.11
2019-01-15T22:26:24.653Z,0.17
2019-01-15T22:29:32.959Z,0.22
2019-01-15T22:32:14.499Z,0.13
2019-01-15T22:35:13.727Z,0.23
2019-01-15T22:38:03.792Z,0.16
2019-01-15T22:40:59.945Z,0.11
2019-01-15T22:43:50.021Z,0.10
2019-01-15T22:46:45.164Z,0.12
2019-01-15T22:49:47.406Z,0.09
2019-01-15T22:52:45.022Z,0.01
2019-01-15T22:55:33.290Z,-0.12
2019-01-15T22:58:23.542Z,-0.06
2019-01-15T23:01:29.757Z,0.07
2019-01-15T23:04:18.138Z,0.13
2019-01-15T23:07:14.337Z,0.25
2019-01-15T23:10:13.427Z,0.24
2019-01-15T23:13:13.445Z,0.33
2019-01-15T23:16:06.740Z,0.38
2019-01-15T23:19:15.039Z,0.48
2019-01-15T23:21:58.602Z,0.47
2019-01-15T23:24:47.046Z,0.50
2019-01-15T23:27:37.262Z,0.47
2019-01-15T23:30:30.316Z,0.60
2019-01-15T23:33:28.061Z,0.59
2019-01-15T23:36:27.095Z,0.74
2019-01-15T23:39:36.707Z,0.83
2019-01-15T23:42:32.618Z,0.80
2019-01-15T23:45:37.853Z,0.79
2019-01-15T23:48:27.893Z,0.76
2019-01-15T23:51:18.965Z,0.71
2019-01-15T23:54:08.889Z,0.66
2019-01-15T23:57:00.583Z,0.60
2019-01-15T23:59:51.615Z,0.70
